
Distance (Route):
Temperature : -19.8°C
Humidity : -1.0%
Pressure : -1.0hPa| Receiver | Date | Latitude | Longitude | Direction | Speed | Altitude | Climb | Temperature | Humidity | Pressure | Voltage | Killtimer | Uptime | BKT | XDATA |
|---|---|---|---|---|---|---|---|---|---|---|---|---|---|---|---|
| DB0ND-19 | 2026-09-01 10:55:50 | 47.22553 | 4.09946 | 86° | 62km/h | 6802m | -3.0m/s | -19.8°C | -1.0% | -1.0hPa | 0V | 00:00:00 | 00:00:00 | 00:00:00 | |
| DB0ND-19 | 2026-09-01 10:55:18 | 47.22547 | 4.09807 | 86° | 62km/h | 6821m | -3.0m/s | -19.7°C | -1.0% | -1.0hPa | 0V | 00:00:00 | 00:00:00 | 00:00:00 | |
| DB0ND-19 | 2026-09-01 10:54:47 | 47.22539 | 4.09063 | 89° | 66km/h | 6923m | -3.0m/s | -20.1°C | -1.0% | -1.0hPa | 0V | 00:00:00 | 00:00:00 | 00:00:00 | |
| DB0ND-19 | 2026-09-01 10:54:16 | 47.22507 | 4.08307 | 84° | 69km/h | 7019m | -3.1m/s | -20.8°C | -1.0% | -1.0hPa | 0V | 00:00:00 | 00:00:00 | 00:00:00 | |
| DB0UT-7 | 2026-09-01 10:53:35 | 47.22437 | 4.07229 | 83° | 73km/h | 7148m | -3.1m/s | 0°C | 0% | 0hPa | 0V | 00:00:00 | 00:00:00 | 00:00:00 | |
| DB0ND-19 | 2026-09-01 10:53:14 | 47.22368 | 4.06587 | 77° | 78km/h | 7233m | -4.2m/s | -21.9°C | -1.0% | -1.0hPa | 0V | 00:00:00 | 00:00:00 | 00:00:00 | |
| DB0ND-19 | 2026-09-01 10:52:43 | 47.22257 | 4.05712 | 71° | 75km/h | 7363m | -3.8m/s | -23.2°C | -1.0% | -1.0hPa | 0V | 00:00:00 | 00:00:00 | 00:00:00 | |
| DB0UT-7 | 2026-09-01 10:52:20 | 47.22195 | 4.05138 | 79° | 69km/h | 7448m | -3.4m/s | 0°C | 0% | 0hPa | 0V | 00:00:00 | 00:00:00 | 00:00:00 | |
| DB0ND-19 | 2026-09-01 10:52:12 | 47.22167 | 4.04885 | 81° | 60km/h | 7480m | -3.4m/s | -23.8°C | -1.0% | -1.0hPa | 0V | 00:00:00 | 00:00:00 | 00:00:00 | |
| DB0UT-7 | 2026-09-01 10:51:51 | 47.22108 | 4.04379 | 81° | 68km/h | 7563m | -3.5m/s | 0°C | 0% | 0hPa | 0V | 00:00:00 | 00:00:00 | 00:00:00 | |
| DB0ND-19 | 2026-09-01 10:51:41 | 47.22076 | 4.04132 | 79° | 66km/h | 7597m | -4.1m/s | -24.7°C | -1.0% | -1.0hPa | 0V | 00:00:00 | 00:00:00 | 00:00:00 | |
| DB0ND-19 | 2026-09-01 10:51:10 | 47.22017 | 4.03379 | 71° | 68km/h | 7729m | -3.2m/s | -25.9°C | -1.0% | -1.0hPa | 0V | 00:00:00 | 00:00:00 | 00:00:00 | |
| DB0UT-7 | 2026-09-01 10:50:43 | 47.21997 | 4.02738 | 82° | 71km/h | 7817m | -3.1m/s | 0°C | 0% | 0hPa | 0V | 00:00:00 | 00:00:00 | 00:00:00 | |
| DB0ND-19 | 2026-09-01 10:50:39 | 47.21976 | 4.02622 | 79° | 78km/h | 7830m | -3.3m/s | -26.9°C | -1.0% | -1.0hPa | 0V | 00:00:00 | 00:00:00 | 00:00:00 | |
| DB0ND-19 | 2026-09-01 10:50:08 | 47.21938 | 4.01869 | 86° | 80km/h | 7930m | -3.3m/s | -27.7°C | -1.0% | -1.0hPa | 0V | 00:00:00 | 00:00:00 | 00:00:00 | |
| DB0ND-19 | 2026-09-01 10:49:37 | 47.21884 | 4.01099 | 87° | 78km/h | 8032m | -3.2m/s | -28.6°C | -1.0% | -1.0hPa | 0V | 00:00:00 | 00:00:00 | 00:00:00 | |
| DB0UT-7 | 2026-09-01 10:48:25 | 47.21692 | 3.99327 | 93° | 69km/h | 8256m | -3.1m/s | 0°C | 0% | 0hPa | 0V | 00:00:00 | 00:00:00 | 00:00:00 | |
| DB0ND-19 | 2026-09-01 10:48:04 | 47.21631 | 3.98742 | 72° | 62km/h | 8322m | -3.3m/s | -30.5°C | -1.0% | -1.0hPa | 0V | 00:00:00 | 00:00:00 | 00:00:00 | |
| DB0UT-7 | 2026-09-01 10:47:45 | 47.21570 | 3.98245 | 70° | 78km/h | 8404m | -3.2m/s | 0°C | 0% | 0hPa | 0V | 00:00:00 | 00:00:00 | 00:00:00 | |
| DB0ND-19 | 2026-09-01 10:47:33 | 47.21529 | 3.97855 | 84° | 62km/h | 8419m | -2.9m/s | -31.3°C | -1.0% | -1.0hPa | 0V | 00:00:00 | 00:00:00 | 00:00:00 | |
| DB0ND-19 | 2026-09-01 10:47:02 | 47.21414 | 3.96914 | 90° | 71km/h | 8524m | -3.2m/s | -32.2°C | -1.0% | -1.0hPa | 0V | 00:00:00 | 00:00:00 | 00:00:00 | |
| DB0UT-7 | 2026-09-01 10:46:39 | 47.21358 | 3.96319 | 77° | 78km/h | 8589m | -3.0m/s | 0°C | 0% | 0hPa | 0V | 00:00:00 | 00:00:00 | 00:00:00 | |
| DB0ND-19 | 2026-09-01 10:46:31 | 47.21304 | 3.96051 | 84° | 93km/h | 8617m | -3.2m/s | -33.0°C | -1.0% | -1.0hPa | 0V | 00:00:00 | 00:00:00 | 00:00:00 | |
| DB0ND-19 | 2026-09-01 10:46:00 | 47.21208 | 3.95162 | 73° | 89km/h | 8713m | -3.2m/s | -33.5°C | -1.0% | -1.0hPa | 0V | 00:00:00 | 00:00:00 | 00:00:00 | |
| DB0UT-7 | 2026-09-01 10:45:41 | 47.21139 | 3.94553 | 84° | 78km/h | 8778m | -3.1m/s | 0°C | 0% | 0hPa | 0V | 00:00:00 | 00:00:00 | 00:00:00 | |
| DB0ND-19 | 2026-09-01 10:45:29 | 47.21121 | 3.94242 | 71° | 71km/h | 8808m | -3.2m/s | -34.2°C | -1.0% | -1.0hPa | 0V | 00:00:00 | 00:00:00 | 00:00:00 | |
| DB0UT-7 | 2026-09-01 10:45:09 | 47.21059 | 3.93697 | 71° | 84km/h | 8869m | -3.1m/s | 0°C | 0% | 0hPa | 0V | 00:00:00 | 00:00:00 | 00:00:00 | |
| DB0ND-19 | 2026-09-01 10:44:58 | 47.21026 | 3.93325 | 85° | 64km/h | 8903m | -3.1m/s | -34.7°C | -1.0% | -1.0hPa | 0V | 00:00:00 | 00:00:00 | 00:00:00 | |
| DB0UT-7 | 2026-09-01 10:43:46 | 47.20785 | 3.91217 | 82° | 91km/h | 9152m | -3.0m/s | 0°C | 0% | 0hPa | 0V | 00:00:00 | 00:00:00 | 00:00:00 | |
| DB0UT-7 | 2026-09-01 10:43:13 | 47.20708 | 3.90177 | 95° | 89km/h | 9237m | -3.2m/s | 0°C | 0% | 0hPa | 0V | 00:00:00 | 00:00:00 | 00:00:00 | |
| DB0ND-19 | 2026-09-01 10:42:54 | 47.20677 | 3.89513 | 83° | 77km/h | 9299m | -3.2m/s | -37.0°C | -1.0% | -1.0hPa | 0V | 00:00:00 | 00:00:00 | 00:00:00 | |
| DB0ND-19 | 2026-09-01 10:42:23 | 47.20622 | 3.88418 | 92° | 84km/h | 9402m | -3.2m/s | -38.0°C | -1.0% | -1.0hPa | 0V | 00:00:00 | 00:00:00 | 00:00:00 | |
| DB0UT-7 | 2026-09-01 10:41:59 | 47.20556 | 3.87667 | 72° | 93km/h | 9479m | -3.7m/s | 0°C | 0% | 0hPa | 0V | 00:00:00 | 00:00:00 | 00:00:00 | |
| DB0ND-19 | 2026-09-01 10:41:52 | 47.20501 | 3.87379 | 86° | 102km/h | 9507m | -3.5m/s | -38.5°C | -1.0% | -1.0hPa | 0V | 00:00:00 | 00:00:00 | 00:00:00 | |
| DB0UT-7 | 2026-09-01 10:41:29 | 47.20419 | 3.86634 | 84° | 93km/h | 9582m | -3.4m/s | 0°C | 0% | 0hPa | 0V | 00:00:00 | 00:00:00 | 00:00:00 | |
| DB0ND-19 | 2026-09-01 10:41:21 | 47.20356 | 3.86351 | 74° | 108km/h | 9613m | -3.5m/s | -39.2°C | -1.0% | -1.0hPa | 0V | 00:00:00 | 00:00:00 | 00:00:00 | |
| DB0UT-7 | 2026-09-01 10:40:59 | 47.20256 | 3.85613 | 86° | 97km/h | 9698m | -3.5m/s | 0°C | 0% | 0hPa | 0V | 00:00:00 | 00:00:00 | 00:00:00 | |
| DB0ND-19 | 2026-09-01 10:40:50 | 47.20221 | 3.85287 | 69° | 95km/h | 9723m | -3.6m/s | -40.1°C | -1.0% | -1.0hPa | 0V | 00:00:00 | 00:00:00 | 00:00:00 | |
| DB0UT-7 | 2026-09-01 10:40:23 | 47.20080 | 3.84325 | 87° | 97km/h | 9819m | -3.5m/s | 0°C | 0% | 0hPa | 0V | 00:00:00 | 00:00:00 | 00:00:00 | |
| DB0ND-19 | 2026-09-01 10:40:18 | 47.20065 | 3.84160 | 73° | 84km/h | 9833m | -3.6m/s | -41.0°C | -1.0% | -1.0hPa | 0V | 00:00:00 | 00:00:00 | 00:00:00 | |
| DB0UT-7 | 2026-09-01 10:39:54 | 47.19900 | 3.83190 | 83° | 102km/h | 9932m | -3.7m/s | 0°C | 0% | 0hPa | 0V | 00:00:00 | 00:00:00 | 00:00:00 | |
| DB0ND-19 | 2026-09-01 10:39:47 | 47.19863 | 3.82940 | 81° | 88km/h | 9949m | -3.4m/s | -42.0°C | -1.0% | -1.0hPa | 0V | 00:00:00 | 00:00:00 | 00:00:00 | |
| DB0UT-7 | 2026-09-01 10:39:21 | 47.19719 | 3.82051 | 71° | 113km/h | 10040m | -3.6m/s | 0°C | 0% | 0hPa | 0V | 00:00:00 | 00:00:00 | 00:00:00 | |
| DB0ND-19 | 2026-09-01 10:39:18 | 47.19682 | 3.81787 | 85° | 119km/h | 10059m | -4.0m/s | -42.9°C | -1.0% | -1.0hPa | 0V | 00:00:00 | 00:00:00 | 00:00:00 | |
| DB0ND-19 | 2026-09-01 10:38:46 | 47.19529 | 3.80591 | 77° | 122km/h | 10172m | -3.7m/s | -43.9°C | -1.0% | -1.0hPa | 0V | 00:00:00 | 00:00:00 | 00:00:00 | |
| DB0UT-7 | 2026-09-01 10:38:26 | 47.19442 | 3.79868 | 82° | 111km/h | 10237m | -3.3m/s | 0°C | 0% | 0hPa | 0V | 00:00:00 | 00:00:00 | 00:00:00 | |
| DB0ND-19 | 2026-09-01 10:38:14 | 47.19389 | 3.79363 | 72° | 115km/h | 10277m | -3.4m/s | -44.9°C | -1.0% | -1.0hPa | 0V | 00:00:00 | 00:00:00 | 00:00:00 | |
| DB0UT-7 | 2026-09-01 10:37:56 | 47.19313 | 3.78691 | 76° | 115km/h | 10359m | -3.6m/s | 0°C | 0% | 0hPa | 0V | 00:00:00 | 00:00:00 | 00:00:00 | |
| DB0ND-19 | 2026-09-01 10:37:43 | 47.19272 | 3.78128 | 73° | 102km/h | 10383m | -3.4m/s | -45.9°C | -1.0% | -1.0hPa | 0V | 00:00:00 | 00:00:00 | 00:00:00 | |
| DB0UT-7 | 2026-09-01 10:37:14 | 47.19159 | 3.76940 | 90° | 113km/h | 10508m | -3.5m/s | 0°C | 0% | 0hPa | 0V | 00:00:00 | 00:00:00 | 00:00:00 | |
| DB0ND-19 | 2026-09-01 10:37:13 | 47.19157 | 3.76870 | 82° | 91km/h | 10494m | -3.5m/s | -46.8°C | -1.0% | -1.0hPa | 0V | 00:00:00 | 00:00:00 | 00:00:00 | |
| DB0UT-7 | 2026-09-01 10:36:39 | 47.19031 | 3.75551 | 90° | 111km/h | 10615m | -3.7m/s | 0°C | 0% | 0hPa | 0V | 00:00:00 | 00:00:00 | 00:00:00 | |
| DB0UT-7 | 2026-09-01 10:36:09 | 47.18900 | 3.74306 | 91° | 117km/h | 10728m | -3.7m/s | 0°C | 0% | 0hPa | 0V | 00:00:00 | 00:00:00 | 00:00:00 | |
| DB0UT-7 | 2026-09-01 10:35:38 | 47.18760 | 3.72990 | 83° | 122km/h | 10859m | -3.6m/s | 0°C | 0% | 0hPa | 0V | 00:00:00 | 00:00:00 | 00:00:00 | |
| DB0UT-7 | 2026-09-01 10:35:06 | 47.18561 | 3.71618 | 79° | 117km/h | 10972m | -4.0m/s | 0°C | 0% | 0hPa | 0V | 00:00:00 | 00:00:00 | 00:00:00 | |
| DB0UT-7 | 2026-09-01 10:34:36 | 47.18335 | 3.70334 | 69° | 124km/h | 11096m | -4.0m/s | 0°C | 0% | 0hPa | 0V | 00:00:00 | 00:00:00 | 00:00:00 | |
| DB0UT-7 | 2026-09-01 10:34:06 | 47.18105 | 3.69029 | 68° | 122km/h | 11219m | -4.3m/s | 0°C | 0% | 0hPa | 0V | 00:00:00 | 00:00:00 | 00:00:00 | |
| DB0UT-7 | 2026-09-01 10:33:29 | 47.17823 | 3.67385 | 72° | 120km/h | 11368m | -3.7m/s | 0°C | 0% | 0hPa | 0V | 00:00:00 | 00:00:00 | 00:00:00 | |
| DB0ND-19 | 2026-09-01 10:33:04 | 47.17660 | 3.66191 | 73° | 102km/h | 11466m | -3.6m/s | -55.2°C | -1.0% | -1.0hPa | 0V | 00:00:00 | 00:00:00 | 00:00:00 | |
| DB0UT-7 | 2026-09-01 10:33:00 | 47.17642 | 3.66078 | 70° | 122km/h | 11477m | -3.9m/s | 0°C | 0% | 0hPa | 0V | 00:00:00 | 00:00:00 | 00:00:00 | |
| DB0UT-7 | 2026-09-01 10:32:29 | 47.17437 | 3.64764 | 74° | 115km/h | 11600m | -4.4m/s | 0°C | 0% | 0hPa | 0V | 00:00:00 | 00:00:00 | 00:00:00 | |
| DB0ND-19 | 2026-09-01 10:32:02 | 47.17242 | 3.63563 | 86° | 120km/h | 11709m | -3.9m/s | -57.5°C | -1.0% | -1.0hPa | 0V | 00:00:00 | 00:00:00 | 00:00:00 | |
| DB0UT-7 | 2026-09-01 10:31:50 | 47.17171 | 3.63133 | 71° | 113km/h | 11756m | -3.9m/s | 0°C | 0% | 0hPa | 0V | 00:00:00 | 00:00:00 | 00:00:00 | |
| DB0UT-7 | 2026-09-01 10:31:20 | 47.16998 | 3.61915 | 69° | 111km/h | 11876m | -3.7m/s | 0°C | 0% | 0hPa | 0V | 00:00:00 | 00:00:00 | 00:00:00 | |
| DB0UT-7 | 2026-09-01 10:30:50 | 47.16823 | 3.60727 | 82° | 99km/h | 12000m | -4.3m/s | 0°C | 0% | 0hPa | 0V | 00:00:00 | 00:00:00 | 00:00:00 | |
| DB0UT-7 | 2026-09-01 10:30:17 | 47.16661 | 3.59488 | 80° | 102km/h | 12134m | -3.9m/s | 0°C | 0% | 0hPa | 0V | 00:00:00 | 00:00:00 | 00:00:00 | |
| DB0UT-7 | 2026-09-01 10:29:47 | 47.16403 | 3.58420 | 79° | 106km/h | 12261m | -4.0m/s | 0°C | 0% | 0hPa | 0V | 00:00:00 | 00:00:00 | 00:00:00 | |
| DB0UT-7 | 2026-09-01 10:29:17 | 47.16220 | 3.57301 | 83° | 104km/h | 12383m | -4.0m/s | 0°C | 0% | 0hPa | 0V | 00:00:00 | 00:00:00 | 00:00:00 | |
| DB0UT-7 | 2026-09-01 10:28:48 | 47.16147 | 3.56191 | 75° | 99km/h | 12505m | -4.3m/s | 0°C | 0% | 0hPa | 0V | 00:00:00 | 00:00:00 | 00:00:00 | |
| DB0UT-7 | 2026-09-01 10:28:17 | 47.16071 | 3.55118 | 81° | 95km/h | 12634m | -4.0m/s | 0°C | 0% | 0hPa | 0V | 00:00:00 | 00:00:00 | 00:00:00 | |
| DB0UT-7 | 2026-09-01 10:27:45 | 47.15994 | 3.54032 | 88° | 86km/h | 12771m | -4.2m/s | 0°C | 0% | 0hPa | 0V | 00:00:00 | 00:00:00 | 00:00:00 | |
| DB0UT-7 | 2026-09-01 10:27:12 | 47.15883 | 3.52983 | 87° | 84km/h | 12913m | -4.4m/s | 0°C | 0% | 0hPa | 0V | 00:00:00 | 00:00:00 | 00:00:00 | |
| DB0UT-7 | 2026-09-01 10:26:42 | 47.15736 | 3.52112 | 91° | 84km/h | 13046m | -4.1m/s | 0°C | 0% | 0hPa | 0V | 00:00:00 | 00:00:00 | 00:00:00 | |
| DB0UT-7 | 2026-09-01 10:26:12 | 47.15564 | 3.51213 | 80° | 91km/h | 13186m | -4.8m/s | 0°C | 0% | 0hPa | 0V | 00:00:00 | 00:00:00 | 00:00:00 | |
| DB0UT-7 | 2026-09-01 10:25:42 | 47.15426 | 3.50232 | 71° | 88km/h | 13344m | -4.6m/s | 0°C | 0% | 0hPa | 0V | 00:00:00 | 00:00:00 | 00:00:00 | |
| DB0UT-7 | 2026-09-01 10:25:10 | 47.15347 | 3.49221 | 67° | 86km/h | 13485m | -4.8m/s | 0°C | 0% | 0hPa | 0V | 00:00:00 | 00:00:00 | 00:00:00 | |
| DB0UT-7 | 2026-09-01 10:24:39 | 47.15224 | 3.48262 | 64° | 97km/h | 13635m | -4.5m/s | 0°C | 0% | 0hPa | 0V | 00:00:00 | 00:00:00 | 00:00:00 | |
| DB0UT-7 | 2026-09-01 10:24:09 | 47.15062 | 3.47221 | 87° | 89km/h | 13779m | -4.1m/s | 0°C | 0% | 0hPa | 0V | 00:00:00 | 00:00:00 | 00:00:00 | |
| DB0UT-7 | 2026-09-01 10:23:39 | 47.14941 | 3.46257 | 95° | 78km/h | 13922m | -4.3m/s | 0°C | 0% | 0hPa | 0V | 00:00:00 | 00:00:00 | 00:00:00 | |
| DB0ND-19 | 2026-09-01 10:23:14 | 47.14918 | 3.45493 | 69° | 71km/h | 14045m | -4.6m/s | -54.3°C | -1.0% | -1.0hPa | 0V | 00:00:00 | 00:00:00 | 00:00:00 | |
| DB0UT-7 | 2026-09-01 10:22:58 | 47.14914 | 3.45097 | 85° | 77km/h | 14117m | -4.5m/s | 0°C | 0% | 0hPa | 0V | 00:00:00 | 00:00:00 | 00:00:00 | |
| DB0UT-7 | 2026-09-01 10:22:28 | 47.14814 | 3.44298 | 95° | 68km/h | 14259m | -4.4m/s | 0°C | 0% | 0hPa | 0V | 00:00:00 | 00:00:00 | 00:00:00 | |
| DB0ND-19 | 2026-09-01 10:22:12 | 47.14750 | 3.43887 | 100° | 60km/h | 14337m | -4.8m/s | -54.0°C | -1.0% | -1.0hPa | 0V | 00:00:00 | 00:00:00 | 00:00:00 | |
| DB0UT-7 | 2026-09-01 10:21:58 | 47.14699 | 3.43591 | 90° | 62km/h | 14406m | -4.6m/s | 0°C | 0% | 0hPa | 0V | 00:00:00 | 00:00:00 | 00:00:00 | |
| DB0UT-7 | 2026-09-01 10:21:28 | 47.14562 | 3.42931 | 63° | 75km/h | 14556m | -5.0m/s | 0°C | 0% | 0hPa | 0V | 00:00:00 | 00:00:00 | 00:00:00 | |
| DB0ND-19 | 2026-09-01 10:21:10 | 47.14460 | 3.42440 | 72° | 97km/h | 14648m | -5.2m/s | -54.9°C | -1.0% | -1.0hPa | 0V | 00:00:00 | 00:00:00 | 00:00:00 | |
| DB0UT-7 | 2026-09-01 10:20:57 | 47.14412 | 3.42140 | 54° | 80km/h | 14716m | -4.8m/s | 0°C | 0% | 0hPa | 0V | 00:00:00 | 00:00:00 | 00:00:00 | |
| DB0UT-7 | 2026-09-01 10:20:27 | 47.14254 | 3.41284 | 82° | 80km/h | 14875m | -5.5m/s | 0°C | 0% | 0hPa | 0V | 00:00:00 | 00:00:00 | 00:00:00 | |
| DB0ND-19 | 2026-09-01 10:20:08 | 47.14170 | 3.40652 | 74° | 91km/h | 14991m | -4.7m/s | -55.9°C | -1.0% | -1.0hPa | 0V | 00:00:00 | 00:00:00 | 00:00:00 | |
| DB0UT-7 | 2026-09-01 10:19:57 | 47.14168 | 3.40400 | 105° | 68km/h | 15032m | -4.8m/s | 0°C | 0% | 0hPa | 0V | 00:00:00 | 00:00:00 | 00:00:00 | |
| DB0UT-7 | 2026-09-01 10:19:27 | 47.14138 | 3.39695 | 81° | 57km/h | 15189m | -5.7m/s | 0°C | 0% | 0hPa | 0V | 00:00:00 | 00:00:00 | 00:00:00 | |
| DB0ND-19 | 2026-09-01 10:19:06 | 47.14089 | 3.39201 | 101° | 57km/h | 15298m | -5.0m/s | -55.0°C | -1.0% | -1.0hPa | 0V | 00:00:00 | 00:00:00 | 00:00:00 | |
| DB0UT-7 | 2026-09-01 10:18:27 | 47.13976 | 3.38382 | 82° | 69km/h | 15505m | -5.2m/s | 0°C | 0% | 0hPa | 0V | 00:00:00 | 00:00:00 | 00:00:00 | |
| DB0ND-19 | 2026-09-01 10:18:04 | 47.13887 | 3.37819 | 78° | 91km/h | 15629m | -5.3m/s | -55.3°C | -1.0% | -1.0hPa | 0V | 00:00:00 | 00:00:00 | 00:00:00 | |
| DB0UT-7 | 2026-09-01 10:17:57 | 47.13897 | 3.37628 | 111° | 68km/h | 15667m | -5.9m/s | 0°C | 0% | 0hPa | 0V | 00:00:00 | 00:00:00 | 00:00:00 | |
| DB0UT-7 | 2026-09-01 10:17:26 | 47.13879 | 3.36851 | 106° | 68km/h | 15839m | -5.3m/s | 0°C | 0% | 0hPa | 0V | 00:00:00 | 00:00:00 | 00:00:00 | |
| DB0ND-19 | 2026-09-01 10:17:02 | 47.13874 | 3.36325 | 63° | 57km/h | 15976m | -5.7m/s | -55.3°C | -1.0% | -1.0hPa | 0V | 00:00:00 | 00:00:00 | 00:00:00 | |
| DB0UT-7 | 2026-09-01 10:16:56 | 47.13853 | 3.36183 | 91° | 58km/h | 16011m | -6.0m/s | 0°C | 0% | 0hPa | 0V | 00:00:00 | 00:00:00 | 00:00:00 | |
| DB0UT-7 | 2026-09-01 10:16:26 | 47.13868 | 3.35564 | 62° | 57km/h | 16187m | -6.4m/s | 0°C | 0% | 0hPa | 0V | 00:00:00 | 00:00:00 | 00:00:00 | |
| DB0UT-7 | 2026-09-01 10:15:56 | 47.13874 | 3.34965 | 66° | 55km/h | 16370m | -6.0m/s | 0°C | 0% | 0hPa | 0V | 00:00:00 | 00:00:00 | 00:00:00 | |
| DB0UT-7 | 2026-09-01 10:15:26 | 47.13899 | 3.34408 | 134° | 47km/h | 16556m | -5.8m/s | 0°C | 0% | 0hPa | 0V | 00:00:00 | 00:00:00 | 00:00:00 | |
| DB0UT-7 | 2026-09-01 10:14:56 | 47.13879 | 3.33856 | 101° | 58km/h | 16745m | -6.0m/s | 0°C | 0% | 0hPa | 0V | 00:00:00 | 00:00:00 | 00:00:00 | |
| DB0UT-7 | 2026-09-01 10:14:25 | 47.13874 | 3.33226 | 89° | 64km/h | 16937m | -5.8m/s | 0°C | 0% | 0hPa | 0V | 00:00:00 | 00:00:00 | 00:00:00 | |
| DB0UT-7 | 2026-09-01 10:13:55 | 47.13934 | 3.32654 | 72° | 49km/h | 17130m | -5.6m/s | 0°C | 0% | 0hPa | 0V | 00:00:00 | 00:00:00 | 00:00:00 | |
| DB0UT-7 | 2026-09-01 10:13:24 | 47.13998 | 3.32098 | 61° | 47km/h | 17326m | -7.1m/s | 0°C | 0% | 0hPa | 0V | 00:00:00 | 00:00:00 | 00:00:00 | |
| DB0UT-7 | 2026-09-01 10:12:53 | 47.14051 | 3.31747 | 320° | 40km/h | 17541m | -7.3m/s | 0°C | 0% | 0hPa | 0V | 00:00:00 | 00:00:00 | 00:00:00 | |
| DB0UT-7 | 2026-09-01 10:12:23 | 47.13953 | 3.31516 | 314° | 35km/h | 17752m | -8.4m/s | 0°C | 0% | 0hPa | 0V | 00:00:00 | 00:00:00 | 00:00:00 | |
| DB0UT-7 | 2026-09-01 10:11:53 | 47.13823 | 3.31249 | 96° | 31km/h | 17977m | -6.0m/s | 0°C | 0% | 0hPa | 0V | 00:00:00 | 00:00:00 | 00:00:00 | |
| DB0ND-19 | 2026-09-01 10:11:52 | 47.13824 | 3.31226 | 89° | 33km/h | 17970m | -6.6m/s | -52.9°C | -1.0% | -1.0hPa | 0V | 00:00:00 | 00:00:00 | 00:00:00 | |
| DB0UT-7 | 2026-09-01 10:11:22 | 47.13831 | 3.30892 | 86° | 22km/h | 18188m | -8.3m/s | 0°C | 0% | 0hPa | 0V | 00:00:00 | 00:00:00 | 00:00:00 | |
| DB0ND-19 | 2026-09-01 10:11:21 | 47.13832 | 3.30866 | 105° | 22km/h | 18203m | -7.6m/s | -53.5°C | -1.0% | -1.0hPa | 0V | 00:00:00 | 00:00:00 | 00:00:00 | |
| DB0UT-7 | 2026-09-01 10:10:52 | 47.13834 | 3.30671 | 107° | 15km/h | 18407m | -6.4m/s | 0°C | 0% | 0hPa | 0V | 00:00:00 | 00:00:00 | 00:00:00 | |
| DB0ND-19 | 2026-09-01 10:10:50 | 47.13836 | 3.30650 | 90° | 22km/h | 18423m | -6.2m/s | -53.2°C | -1.0% | -1.0hPa | 0V | 00:00:00 | 00:00:00 | 00:00:00 | |
| DB0UT-7 | 2026-09-01 10:10:22 | 47.13796 | 3.30525 | 31° | 26km/h | 18618m | -5.8m/s | 0°C | 0% | 0hPa | 0V | 00:00:00 | 00:00:00 | 00:00:00 | |
| DB0ND-19 | 2026-09-01 10:10:19 | 47.13781 | 3.30498 | 63° | 22km/h | 18637m | -7.1m/s | -53.8°C | -1.0% | -1.0hPa | 0V | 00:00:00 | 00:00:00 | 00:00:00 | |
| DB0UT-7 | 2026-09-01 10:09:53 | 47.13664 | 3.30384 | 54° | 29km/h | 18830m | -8.4m/s | 0°C | 0% | 0hPa | 0V | 00:00:00 | 00:00:00 | 00:00:00 | |
| DL8DAS-14 | 2026-09-01 10:09:49 | 47.13632 | 3.30345 | 28° | 35km/h | 18853m | -7.5m/s | -53.9°C | -1.0% | -1.0hPa | 0V | 00:00:00 | 00:00:00 | 00:00:00 | |
| DB0ND-19 | 2026-09-01 10:09:48 | 47.13624 | 3.30340 | 22° | 33km/h | 18860m | -6.9m/s | -54.6°C | -1.0% | -1.0hPa | 0V | 00:00:00 | 00:00:00 | 00:00:00 | |
| DB0UT-7 | 2026-09-01 10:09:22 | 47.13494 | 3.30187 | 27° | 22km/h | 19038m | -7.0m/s | 0°C | 0% | 0hPa | 0V | 00:00:00 | 00:00:00 | 00:00:00 | |
| DL8DAS-14 | 2026-09-01 10:09:18 | 47.13480 | 3.30159 | 73° | 15km/h | 19077m | -9.1m/s | -53.8°C | -1.0% | -1.0hPa | 0V | 00:00:00 | 00:00:00 | 00:00:00 | |
| DB0ND-19 | 2026-09-01 10:09:16 | 47.13478 | 3.30149 | 55° | 13km/h | 19093m | -6.3m/s | -54.4°C | -1.0% | -1.0hPa | 0V | 00:00:00 | 00:00:00 | 00:00:00 | |
| DB0UT-7 | 2026-09-01 10:08:52 | 47.13388 | 3.29981 | 61° | 31km/h | 19253m | -7.4m/s | 0°C | 0% | 0hPa | 0V | 00:00:00 | 00:00:00 | 00:00:00 | |
| DL8DAS-14 | 2026-09-01 10:08:47 | 47.13370 | 3.29907 | 74° | 31km/h | 19270m | 5.7m/s | -54.3°C | -1.0% | -1.0hPa | 0V | 00:00:00 | 00:00:00 | 00:00:00 | |
| DB0ND-19 | 2026-09-01 10:08:45 | 47.13364 | 3.29886 | 60° | 29km/h | 19259m | 6.4m/s | -55.2°C | -1.0% | -1.0hPa | 0V | 00:00:00 | 00:00:00 | 00:00:00 | |
| DB0UT-7 | 2026-09-01 10:08:21 | 47.13261 | 3.29675 | 44° | 20km/h | 19141m | 4.2m/s | 0°C | 0% | 0hPa | 0V | 00:00:00 | 00:00:00 | 00:00:00 | |
| DL8DAS-14 | 2026-09-01 10:08:16 | 47.13230 | 3.29629 | 51° | 22km/h | 19111m | 6.2m/s | -54.6°C | -1.0% | -1.0hPa | 0V | 00:00:00 | 00:00:00 | 00:00:00 | |
| DB0ND-19 | 2026-09-01 10:08:15 | 47.13227 | 3.29622 | 51° | 20km/h | 19106m | 4.1m/s | -55.5°C | -1.0% | -1.0hPa | 0V | 00:00:00 | 00:00:00 | 00:00:00 | |
| DB0UT-7 | 2026-09-01 10:07:51 | 47.13161 | 3.29515 | 46° | 29km/h | 18993m | 3.7m/s | 0°C | 0% | 0hPa | 0V | 00:00:00 | 00:00:00 | 00:00:00 | |
| DB0ND-19 | 2026-09-01 10:07:43 | 47.13127 | 3.29461 | 46° | 24km/h | 18956m | 5.5m/s | -55.5°C | -1.0% | -1.0hPa | 0V | 00:00:00 | 00:00:00 | 00:00:00 | |
| DB0UT-7 | 2026-09-01 10:07:21 | 47.12997 | 3.29303 | 33° | 27km/h | 18848m | 4.5m/s | 0°C | 0% | 0hPa | 0V | 00:00:00 | 00:00:00 | 00:00:00 | |
| DB0ND-19 | 2026-09-01 10:07:12 | 47.12935 | 3.29236 | 33° | 31km/h | 18802m | 5.6m/s | -55.3°C | -1.0% | -1.0hPa | 0V | 00:00:00 | 00:00:00 | 00:00:00 | |
| DB0UT-7 | 2026-09-01 10:06:51 | 47.12829 | 3.29128 | 37° | 18km/h | 18700m | 5.4m/s | 0°C | 0% | 0hPa | 0V | 00:00:00 | 00:00:00 | 00:00:00 | |
| DB0ND-19 | 2026-09-01 10:06:41 | 47.12776 | 3.29085 | 27° | 16km/h | 18649m | 5.6m/s | -54.2°C | -1.0% | -1.0hPa | 0V | 00:00:00 | 00:00:00 | 00:00:00 | |
| DB0UT-7 | 2026-09-01 10:06:21 | 47.12715 | 3.29033 | 48° | 16km/h | 18556m | 4.0m/s | 0°C | 0% | 0hPa | 0V | 00:00:00 | 00:00:00 | 00:00:00 | |
| DB0ND-19 | 2026-09-01 10:06:10 | 47.12701 | 3.28977 | 73° | 15km/h | 18502m | 3.9m/s | -53.9°C | -1.0% | -1.0hPa | 0V | 00:00:00 | 00:00:00 | 00:00:00 | |
| DB0UT-7 | 2026-09-01 10:05:51 | 47.12695 | 3.28858 | 96° | 18km/h | 18411m | 3.4m/s | 0°C | 0% | 0hPa | 0V | 00:00:00 | 00:00:00 | 00:00:00 | |
| DB0UT-7 | 2026-09-01 10:05:22 | 47.12684 | 3.28664 | 109° | 26km/h | 18269m | 5.5m/s | 0°C | 0% | 0hPa | 0V | 00:00:00 | 00:00:00 | 00:00:00 | |
| DB0UT-7 | 2026-09-01 10:04:50 | 47.12735 | 3.28374 | 98° | 31km/h | 18109m | 5.8m/s | 0°C | 0% | 0hPa | 0V | 00:00:00 | 00:00:00 | 00:00:00 | |
| DB0UT-7 | 2026-09-01 10:04:20 | 47.12757 | 3.28027 | 96° | 29km/h | 17954m | 4.8m/s | 0°C | 0% | 0hPa | 0V | 00:00:00 | 00:00:00 | 00:00:00 | |
| DB0ND-19 | 2026-09-01 10:04:06 | 47.12743 | 3.27859 | 67° | 29km/h | 17876m | 4.9m/s | -53.4°C | -1.0% | -1.0hPa | 0V | 00:00:00 | 00:00:00 | 00:00:00 | |
| DB0UT-7 | 2026-09-01 10:03:50 | 47.12711 | 3.27721 | 71° | 26km/h | 17802m | 4.4m/s | 0°C | 0% | 0hPa | 0V | 00:00:00 | 00:00:00 | 00:00:00 | |
| DB0UT-7 | 2026-09-01 10:03:20 | 47.12621 | 3.27472 | 61° | 22km/h | 17651m | 4.4m/s | 0°C | 0% | 0hPa | 0V | 00:00:00 | 00:00:00 | 00:00:00 | |
| DB0ND-19 | 2026-09-01 10:03:04 | 47.12574 | 3.27339 | 71° | 22km/h | 17574m | 4.9m/s | -51.9°C | -1.0% | -1.0hPa | 0V | 00:00:00 | 00:00:00 | 00:00:00 | |
| DB0UT-7 | 2026-09-01 10:02:50 | 47.12558 | 3.27250 | 99° | 35km/h | 17505m | 4.3m/s | 0°C | 0% | 0hPa | 0V | 00:00:00 | 00:00:00 | 00:00:00 | |
| DB0UT-7 | 2026-09-01 10:02:20 | 47.12621 | 3.26879 | 111° | 47km/h | 17364m | 5.7m/s | 0°C | 0% | 0hPa | 0V | 00:00:00 | 00:00:00 | 00:00:00 | |
| DB0ND-19 | 2026-09-01 10:02:02 | 47.12677 | 3.26554 | 94° | 47km/h | 17282m | 5.5m/s | -54.9°C | -1.0% | -1.0hPa | 0V | 00:00:00 | 00:00:00 | 00:00:00 | |
| DB0UT-7 | 2026-09-01 10:01:49 | 47.12689 | 3.26330 | 91° | 53km/h | 17221m | 3.4m/s | 0°C | 0% | 0hPa | 0V | 00:00:00 | 00:00:00 | 00:00:00 | |
| DB0UT-7 | 2026-09-01 10:01:19 | 47.12728 | 3.25731 | 93° | 55km/h | 17086m | 5.5m/s | 0°C | 0% | 0hPa | 0V | 00:00:00 | 00:00:00 | 00:00:00 | |
| DB0UT-7 | 2026-09-01 10:00:49 | 47.12770 | 3.25133 | 94° | 57km/h | 16950m | 5.7m/s | 0°C | 0% | 0hPa | 0V | 00:00:00 | 00:00:00 | 00:00:00 | |
| DB0UT-7 | 2026-09-01 10:00:19 | 47.12756 | 3.24503 | 95° | 55km/h | 16815m | 3.3m/s | 0°C | 0% | 0hPa | 0V | 00:00:00 | 00:00:00 | 00:00:00 | |
| DB0UT-7 | 2026-09-01 09:59:49 | 47.12719 | 3.23895 | 82° | 46km/h | 16681m | 3.5m/s | 0°C | 0% | 0hPa | 0V | 00:00:00 | 00:00:00 | 00:00:00 | |
| DB0UT-7 | 2026-09-01 09:59:19 | 47.12705 | 3.23383 | 93° | 44km/h | 16543m | 5.7m/s | 0°C | 0% | 0hPa | 0V | 00:00:00 | 00:00:00 | 00:00:00 | |
| DB0UT-7 | 2026-09-01 09:58:49 | 47.12730 | 3.22891 | 93° | 51km/h | 16398m | 5.0m/s | 0°C | 0% | 0hPa | 0V | 00:00:00 | 00:00:00 | 00:00:00 | |
| DB0UT-7 | 2026-09-01 09:58:18 | 47.12692 | 3.22310 | 81° | 51km/h | 16248m | 4.5m/s | 0°C | 0% | 0hPa | 0V | 00:00:00 | 00:00:00 | 00:00:00 | |
| DB0UT-7 | 2026-09-01 09:57:48 | 47.12628 | 3.21745 | 80° | 57km/h | 16101m | 4.0m/s | 0°C | 0% | 0hPa | 0V | 00:00:00 | 00:00:00 | 00:00:00 | |
| DB0UT-7 | 2026-09-01 09:57:18 | 47.12591 | 3.21123 | 83° | 60km/h | 15957m | 5.1m/s | 0°C | 0% | 0hPa | 0V | 00:00:00 | 00:00:00 | 00:00:00 | |
| DB0UT-7 | 2026-09-01 09:56:48 | 47.12540 | 3.20464 | 86° | 64km/h | 15816m | 4.0m/s | 0°C | 0% | 0hPa | 0V | 00:00:00 | 00:00:00 | 00:00:00 | |
| DB0UT-7 | 2026-09-01 09:56:18 | 47.12505 | 3.19754 | 91° | 68km/h | 15674m | 4.7m/s | 0°C | 0% | 0hPa | 0V | 00:00:00 | 00:00:00 | 00:00:00 | |
| DB0UT-7 | 2026-09-01 09:55:48 | 47.12436 | 3.19006 | 79° | 62km/h | 15544m | 5.4m/s | 0°C | 0% | 0hPa | 0V | 00:00:00 | 00:00:00 | 00:00:00 | |
| DB0UT-7 | 2026-09-01 09:55:17 | 47.12332 | 3.18307 | 80° | 57km/h | 15406m | 5.2m/s | 0°C | 0% | 0hPa | 0V | 00:00:00 | 00:00:00 | 00:00:00 | |
| DB0UT-7 | 2026-09-01 09:54:47 | 47.12219 | 3.17713 | 77° | 55km/h | 15274m | 4.3m/s | 0°C | 0% | 0hPa | 0V | 00:00:00 | 00:00:00 | 00:00:00 | |
| DB0UT-7 | 2026-09-01 09:54:17 | 47.12139 | 3.17128 | 87° | 60km/h | 15140m | 4.1m/s | 0°C | 0% | 0hPa | 0V | 00:00:00 | 00:00:00 | 00:00:00 | |
| DB0UT-7 | 2026-09-01 09:53:47 | 47.12122 | 3.16465 | 90° | 73km/h | 15004m | 4.0m/s | 0°C | 0% | 0hPa | 0V | 00:00:00 | 00:00:00 | 00:00:00 | |
| DB0ND-19 | 2026-09-01 09:53:46 | 47.12123 | 3.16417 | 94° | 64km/h | 14999m | 5.1m/s | -54.9°C | -1.0% | -1.0hPa | 0V | 00:00:00 | 00:00:00 | 00:00:00 | |
| DB0UT-7 | 2026-09-01 09:53:17 | 47.12118 | 3.15668 | 84° | 75km/h | 14863m | 4.0m/s | 0°C | 0% | 0hPa | 0V | 00:00:00 | 00:00:00 | 00:00:00 | |
| DB0UT-7 | 2026-09-01 09:52:47 | 47.12002 | 3.14846 | 73° | 75km/h | 14721m | 3.9m/s | 0°C | 0% | 0hPa | 0V | 00:00:00 | 00:00:00 | 00:00:00 | |
| DB0ND-19 | 2026-09-01 09:52:43 | 47.11970 | 3.14683 | 76° | 80km/h | 14696m | 4.4m/s | -54.9°C | -1.0% | -1.0hPa | 0V | 00:00:00 | 00:00:00 | 00:00:00 | |
| DB0UT-7 | 2026-09-01 09:52:17 | 47.11839 | 3.14048 | 76° | 66km/h | 14574m | 4.6m/s | 0°C | 0% | 0hPa | 0V | 00:00:00 | 00:00:00 | 00:00:00 | |
| DB0ND-19 | 2026-09-01 09:52:12 | 47.11810 | 3.13903 | 73° | 66km/h | 14551m | 3.6m/s | -54.1°C | -1.0% | -1.0hPa | 0V | 00:00:00 | 00:00:00 | 00:00:00 | |
| DB0UT-7 | 2026-09-01 09:51:46 | 47.11710 | 3.13312 | 75° | 64km/h | 14425m | 4.5m/s | 0°C | 0% | 0hPa | 0V | 00:00:00 | 00:00:00 | 00:00:00 | |
| DB0ND-19 | 2026-09-01 09:51:42 | 47.11691 | 3.13172 | 81° | 55km/h | 14401m | 4.0m/s | -54.0°C | -1.0% | -1.0hPa | 0V | 00:00:00 | 00:00:00 | 00:00:00 | |
| DB0UT-7 | 2026-09-01 09:51:16 | 47.11630 | 3.12618 | 79° | 71km/h | 14279m | 4.9m/s | 0°C | 0% | 0hPa | 0V | 00:00:00 | 00:00:00 | 00:00:00 | |
| DB0ND-19 | 2026-09-01 09:51:10 | 47.11608 | 3.12442 | 80° | 71km/h | 14249m | 5.0m/s | -54.5°C | -1.0% | -1.0hPa | 0V | 00:00:00 | 00:00:00 | 00:00:00 | |
| DB0UT-7 | 2026-09-01 09:50:46 | 47.11575 | 3.11834 | 88° | 78km/h | 14137m | 3.1m/s | 0°C | 0% | 0hPa | 0V | 00:00:00 | 00:00:00 | 00:00:00 | |
| DB0ND-19 | 2026-09-01 09:50:39 | 47.11569 | 3.11642 | 90° | 75km/h | 14108m | 4.1m/s | -54.5°C | -1.0% | -1.0hPa | 0V | 00:00:00 | 00:00:00 | 00:00:00 | |
| DB0UT-7 | 2026-09-01 09:50:16 | 47.11548 | 3.10966 | 85° | 88km/h | 13995m | 5.3m/s | 0°C | 0% | 0hPa | 0V | 00:00:00 | 00:00:00 | 00:00:00 | |
| DB0ND-19 | 2026-09-01 09:50:08 | 47.11526 | 3.10642 | 86° | 88km/h | 13960m | 5.7m/s | -55.5°C | -1.0% | -1.0hPa | 0V | 00:00:00 | 00:00:00 | 00:00:00 | |
| DB0UT-7 | 2026-09-01 09:49:46 | 47.11467 | 3.09997 | 81° | 91km/h | 13867m | 3.0m/s | 0°C | 0% | 0hPa | 0V | 00:00:00 | 00:00:00 | 00:00:00 | |
| DB0ND-19 | 2026-09-01 09:49:37 | 47.11430 | 3.09675 | 81° | 88km/h | 13826m | 4.4m/s | -55.9°C | -1.0% | -1.0hPa | 0V | 00:00:00 | 00:00:00 | 00:00:00 | |
| DB0UT-7 | 2026-09-01 09:49:16 | 47.11322 | 3.09012 | 75° | 86km/h | 13733m | 3.1m/s | 0°C | 0% | 0hPa | 0V | 00:00:00 | 00:00:00 | 00:00:00 | |
| DB0ND-19 | 2026-09-01 09:49:06 | 47.11265 | 3.08668 | 74° | 84km/h | 13688m | 3.9m/s | -55.7°C | -1.0% | -1.0hPa | 0V | 00:00:00 | 00:00:00 | 00:00:00 | |
| DB0UT-7 | 2026-09-01 09:48:45 | 47.11185 | 3.08060 | 84° | 82km/h | 13595m | 4.8m/s | 0°C | 0% | 0hPa | 0V | 00:00:00 | 00:00:00 | 00:00:00 | |
| DB0ND-19 | 2026-09-01 09:48:35 | 47.11152 | 3.07724 | 80° | 82km/h | 13548m | 3.6m/s | -55.9°C | -1.0% | -1.0hPa | 0V | 00:00:00 | 00:00:00 | 00:00:00 | |
| DB0UT-7 | 2026-09-01 09:48:15 | 47.11122 | 3.07142 | 88° | 91km/h | 13458m | 3.9m/s | 0°C | 0% | 0hPa | 0V | 00:00:00 | 00:00:00 | 00:00:00 | |
| DB0UT-7 | 2026-09-01 09:47:45 | 47.11042 | 3.06133 | 80° | 88km/h | 13319m | 4.9m/s | 0°C | 0% | 0hPa | 0V | 00:00:00 | 00:00:00 | 00:00:00 | |
| DB0UT-7 | 2026-09-01 09:47:15 | 47.10902 | 3.05174 | 83° | 86km/h | 13181m | 5.5m/s | 0°C | 0% | 0hPa | 0V | 00:00:00 | 00:00:00 | 00:00:00 | |
| DB0UT-7 | 2026-09-01 09:46:45 | 47.10779 | 3.04249 | 80° | 82km/h | 13042m | 3.2m/s | 0°C | 0% | 0hPa | 0V | 00:00:00 | 00:00:00 | 00:00:00 | |
| DB0UT-7 | 2026-09-01 09:46:16 | 47.10689 | 3.03347 | 84° | 86km/h | 12896m | 3.4m/s | 0°C | 0% | 0hPa | 0V | 00:00:00 | 00:00:00 | 00:00:00 | |
| DB0UT-7 | 2026-09-01 09:45:44 | 47.10626 | 3.02362 | 85° | 93km/h | 12769m | 3.7m/s | 0°C | 0% | 0hPa | 0V | 00:00:00 | 00:00:00 | 00:00:00 | |
| DB0UT-7 | 2026-09-01 09:45:14 | 47.10533 | 3.01343 | 84° | 95km/h | 12630m | 3.6m/s | 0°C | 0% | 0hPa | 0V | 00:00:00 | 00:00:00 | 00:00:00 | |
| DB0UT-7 | 2026-09-01 09:44:14 | 47.10293 | 2.99172 | 77° | 100km/h | 12358m | 5.4m/s | 0°C | 0% | 0hPa | 0V | 00:00:00 | 00:00:00 | 00:00:00 | |
| DB0UT-7 | 2026-09-01 09:43:44 | 47.10020 | 2.98123 | 65° | 99km/h | 12223m | 4.8m/s | 0°C | 0% | 0hPa | 0V | 00:00:00 | 00:00:00 | 00:00:00 | |
| DB0UT-7 | 2026-09-01 09:43:14 | 47.09737 | 2.97117 | 76° | 100km/h | 12068m | 5.6m/s | 0°C | 0% | 0hPa | 0V | 00:00:00 | 00:00:00 | 00:00:00 | |
| DB0UT-7 | 2026-09-01 09:42:43 | 47.09559 | 2.96001 | 79° | 99km/h | 11930m | 3.4m/s | 0°C | 0% | 0hPa | 0V | 00:00:00 | 00:00:00 | 00:00:00 | |
| DB0UT-7 | 2026-09-01 09:42:13 | 47.09417 | 2.94920 | 82° | 104km/h | 11789m | 5.2m/s | 0°C | 0% | 0hPa | 0V | 00:00:00 | 00:00:00 | 00:00:00 | |
| DB0UT-7 | 2026-09-01 09:41:43 | 47.09295 | 2.93782 | 81° | 108km/h | 11653m | 5.8m/s | 0°C | 0% | 0hPa | 0V | 00:00:00 | 00:00:00 | 00:00:00 | |
| DB0UT-7 | 2026-09-01 09:41:13 | 47.09148 | 2.92602 | 77° | 111km/h | 11514m | 5.0m/s | 0°C | 0% | 0hPa | 0V | 00:00:00 | 00:00:00 | 00:00:00 | |
| DB0UT-7 | 2026-09-01 09:40:43 | 47.08968 | 2.91411 | 77° | 113km/h | 11359m | 3.5m/s | 0°C | 0% | 0hPa | 0V | 00:00:00 | 00:00:00 | 00:00:00 | |
| DB0UT-7 | 2026-09-01 09:40:13 | 47.08782 | 2.90197 | 77° | 113km/h | 11243m | 4.0m/s | 0°C | 0% | 0hPa | 0V | 00:00:00 | 00:00:00 | 00:00:00 | |
| DB0UT-7 | 2026-09-01 09:39:43 | 47.08601 | 2.88974 | 78° | 111km/h | 11109m | 5.1m/s | 0°C | 0% | 0hPa | 0V | 00:00:00 | 00:00:00 | 00:00:00 | |
| DB0UT-7 | 2026-09-01 09:39:12 | 47.08427 | 2.87717 | 81° | 111km/h | 10941m | 5.6m/s | 0°C | 0% | 0hPa | 0V | 00:00:00 | 00:00:00 | 00:00:00 | |
| DB0UT-7 | 2026-09-01 09:38:40 | 47.08264 | 2.86408 | 81° | 111km/h | 10805m | 5.0m/s | 0°C | 0% | 0hPa | 0V | 00:00:00 | 00:00:00 | 00:00:00 | |
| DB0UT-7 | 2026-09-01 09:38:10 | 47.08127 | 2.85189 | 82° | 111km/h | 10664m | 4.8m/s | 0°C | 0% | 0hPa | 0V | 00:00:00 | 00:00:00 | 00:00:00 | |
| DB0UT-7 | 2026-09-01 09:37:40 | 47.07992 | 2.83966 | 80° | 111km/h | 10528m | 4.5m/s | 0°C | 0% | 0hPa | 0V | 00:00:00 | 00:00:00 | 00:00:00 | |
| DB0UT-7 | 2026-09-01 09:37:10 | 47.07843 | 2.82744 | 80° | 108km/h | 10375m | 4.0m/s | 0°C | 0% | 0hPa | 0V | 00:00:00 | 00:00:00 | 00:00:00 | |
| DB0UT-7 | 2026-09-01 09:36:40 | 47.07668 | 2.81566 | 76° | 110km/h | 10234m | 4.0m/s | 0°C | 0% | 0hPa | 0V | 00:00:00 | 00:00:00 | 00:00:00 | |
| DB0UT-7 | 2026-09-01 09:36:10 | 47.07452 | 2.80403 | 74° | 102km/h | 10076m | 2.5m/s | 0°C | 0% | 0hPa | 0V | 00:00:00 | 00:00:00 | 00:00:00 | |
| DB0UT-7 | 2026-09-01 09:35:40 | 47.07228 | 2.79318 | 74° | 99km/h | 9915m | 3.6m/s | 0°C | 0% | 0hPa | 0V | 00:00:00 | 00:00:00 | 00:00:00 | |
| DB0UT-7 | 2026-09-01 09:35:00 | 47.06951 | 2.77899 | 76° | 97km/h | 9739m | 7.3m/s | 0°C | 0% | 0hPa | 0V | 00:00:00 | 00:00:00 | 00:00:00 | |
| DB0UT-7 | 2026-09-01 09:34:30 | 47.06775 | 2.76854 | 78° | 93km/h | 9595m | 4.0m/s | 0°C | 0% | 0hPa | 0V | 00:00:00 | 00:00:00 | 00:00:00 | |
| DB0UT-7 | 2026-09-01 09:34:00 | 47.06644 | 2.75821 | 83° | 91km/h | 9460m | 5.3m/s | 0°C | 0% | 0hPa | 0V | 00:00:00 | 00:00:00 | 00:00:00 | |
| DB0UT-7 | 2026-09-01 09:33:30 | 47.06547 | 2.74818 | 83° | 84km/h | 9318m | 5.4m/s | 0°C | 0% | 0hPa | 0V | 00:00:00 | 00:00:00 | 00:00:00 | |
| DB0UT-7 | 2026-09-01 09:33:00 | 47.06446 | 2.73888 | 78° | 84km/h | 9180m | 4.0m/s | 0°C | 0% | 0hPa | 0V | 00:00:00 | 00:00:00 | 00:00:00 | |
| DB0UT-7 | 2026-09-01 09:32:30 | 47.06345 | 2.72977 | 81° | 82km/h | 9036m | 4.5m/s | 0°C | 0% | 0hPa | 0V | 00:00:00 | 00:00:00 | 00:00:00 | |
| DB0UT-7 | 2026-09-01 09:31:59 | 47.06238 | 2.72051 | 81° | 80km/h | 8896m | 4.2m/s | 0°C | 0% | 0hPa | 0V | 00:00:00 | 00:00:00 | 00:00:00 | |
| DB0UT-7 | 2026-09-01 09:31:29 | 47.06154 | 2.71165 | 82° | 80km/h | 8753m | 4.0m/s | 0°C | 0% | 0hPa | 0V | 00:00:00 | 00:00:00 | 00:00:00 |